sensor_id;sensor_type;location;lat;lon;timestamp;temperature;humidity
16907;DHT22;8570;52.380;4.654;2023-06-04T00:04:49;14.60;94.60
16907;DHT22;8570;52.380;4.654;2023-06-04T00:09:52;14.50;94.80
16907;DHT22;8570;52.380;4.654;2023-06-04T00:14:54;14.50;94.90
16907;DHT22;8570;52.380;4.654;2023-06-04T00:19:57;14.40;95.00
16907;DHT22;8570;52.380;4.654;2023-06-04T00:24:59;14.40;95.20
16907;DHT22;8570;52.380;4.654;2023-06-04T00:30:01;14.30;95.40
16907;DHT22;8570;52.380;4.654;2023-06-04T00:35:05;14.30;95.60
16907;DHT22;8570;52.380;4.654;2023-06-04T00:40:08;14.20;95.80
16907;DHT22;8570;52.380;4.654;2023-06-04T00:45:10;14.20;96.00
16907;DHT22;8570;52.380;4.654;2023-06-04T00:50:18;14.10;96.10
16907;DHT22;8570;52.380;4.654;2023-06-04T00:55:21;14.10;96.40
16907;DHT22;8570;52.380;4.654;2023-06-04T01:00:23;14.00;96.80
16907;DHT22;8570;52.380;4.654;2023-06-04T01:05:36;14.00;96.70
16907;DHT22;8570;52.380;4.654;2023-06-04T01:10:41;13.90;96.90
16907;DHT22;8570;52.380;4.654;2023-06-04T01:15:51;13.90;97.00
16907;DHT22;8570;52.380;4.654;2023-06-04T01:20:58;13.80;97.30
16907;DHT22;8570;52.380;4.654;2023-06-04T01:26:02;13.80;97.50
16907;DHT22;8570;52.380;4.654;2023-06-04T01:31:06;13.70;97.60
16907;DHT22;8570;52.380;4.654;2023-06-04T01:36:10;13.70;98.20
16907;DHT22;8570;52.380;4.654;2023-06-04T01:41:13;13.70;98.00
16907;DHT22;8570;52.380;4.654;2023-06-04T01:46:17;13.60;98.10
16907;DHT22;8570;52.380;4.654;2023-06-04T01:51:20;13.60;98.40
16907;DHT22;8570;52.380;4.654;2023-06-04T01:56:22;13.50;98.50
16907;DHT22;8570;52.380;4.654;2023-06-04T02:01:24;13.50;99.10
16907;DHT22;8570;52.380;4.654;2023-06-04T02:06:27;13.40;98.90
16907;DHT22;8570;52.380;4.654;2023-06-04T02:11:30;13.40;99.00
16907;DHT22;8570;52.380;4.654;2023-06-04T02:16:32;13.30;99.10
16907;DHT22;8570;52.380;4.654;2023-06-04T02:21:35;13.30;99.40
16907;DHT22;8570;52.380;4.654;2023-06-04T02:26:37;13.30;99.60
16907;DHT22;8570;52.380;4.654;2023-06-04T02:31:40;13.20;99.70
16907;DHT22;8570;52.380;4.654;2023-06-04T02:36:43;13.20;99.90
16907;DHT22;8570;52.380;4.654;2023-06-04T02:41:48;13.20;99.90
16907;DHT22;8570;52.380;4.654;2023-06-04T02:46:50;13.10;99.90
16907;DHT22;8570;52.380;4.654;2023-06-04T02:51:53;13.10;99.90
16907;DHT22;8570;52.380;4.654;2023-06-04T02:56:55;13.00;99.90
16907;DHT22;8570;52.380;4.654;2023-06-04T03:01:57;13.00;99.90
16907;DHT22;8570;52.380;4.654;2023-06-04T03:07:01;12.90;99.90
16907;DHT22;8570;52.380;4.654;2023-06-04T03:12:03;12.90;99.90
16907;DHT22;8570;52.380;4.654;2023-06-04T03:17:05;12.90;99.90
16907;DHT22;8570;52.380;4.654;2023-06-04T03:22:12;12.80;99.90
16907;DHT22;8570;52.380;4.654;2023-06-04T03:27:14;12.80;99.90
16907;DHT22;8570;52.380;4.654;2023-06-04T03:32:16;12.80;99.90
16907;DHT22;8570;52.380;4.654;2023-06-04T03:37:20;12.80;99.90
16907;DHT22;8570;52.380;4.654;2023-06-04T03:42:22;12.70;99.90
16907;DHT22;8570;52.380;4.654;2023-06-04T03:47:23;12.70;99.90
16907;DHT22;8570;52.380;4.654;2023-06-04T03:52:27;12.70;99.90
16907;DHT22;8570;52.380;4.654;2023-06-04T03:57:29;12.70;99.90
16907;DHT22;8570;52.380;4.654;2023-06-04T04:02:31;12.70;99.90
16907;DHT22;8570;52.380;4.654;2023-06-04T04:07:35;12.70;99.90
16907;DHT22;8570;52.380;4.654;2023-06-04T04:12:37;12.70;99.90
16907;DHT22;8570;52.380;4.654;2023-06-04T04:17:38;12.70;99.90
16907;DHT22;8570;52.380;4.654;2023-06-04T04:22:43;12.70;99.90
16907;DHT22;8570;52.380;4.654;2023-06-04T04:27:46;12.70;99.90
16907;DHT22;8570;52.380;4.654;2023-06-04T04:32:49;12.70;99.90
16907;DHT22;8570;52.380;4.654;2023-06-04T04:37:52;12.70;99.90
16907;DHT22;8570;52.380;4.654;2023-06-04T04:42:54;12.70;99.90
16907;DHT22;8570;52.380;4.654;2023-06-04T04:47:56;12.70;99.90
16907;DHT22;8570;52.380;4.654;2023-06-04T04:53:00;12.70;99.90
16907;DHT22;8570;52.380;4.654;2023-06-04T04:58:02;12.70;99.90
16907;DHT22;8570;52.380;4.654;2023-06-04T05:03:04;12.80;99.90
16907;DHT22;8570;52.380;4.654;2023-06-04T05:08:07;12.80;99.90
16907;DHT22;8570;52.380;4.654;2023-06-04T05:13:09;12.80;99.90
16907;DHT22;8570;52.380;4.654;2023-06-04T05:18:11;12.90;99.90
16907;DHT22;8570;52.380;4.654;2023-06-04T05:23:15;12.90;99.90
16907;DHT22;8570;52.380;4.654;2023-06-04T05:28:17;12.90;99.90
16907;DHT22;8570;52.380;4.654;2023-06-04T05:33:19;13.00;99.90
16907;DHT22;8570;52.380;4.654;2023-06-04T05:38:22;13.00;99.90
16907;DHT22;8570;52.380;4.654;2023-06-04T05:43:26;13.10;99.90
16907;DHT22;8570;52.380;4.654;2023-06-04T05:48:28;13.10;99.90
16907;DHT22;8570;52.380;4.654;2023-06-04T05:53:31;13.20;99.90
16907;DHT22;8570;52.380;4.654;2023-06-04T05:58:34;13.30;99.90
16907;DHT22;8570;52.380;4.654;2023-06-04T06:03:36;13.40;99.90
16907;DHT22;8570;52.380;4.654;2023-06-04T06:08:40;13.40;99.90
16907;DHT22;8570;52.380;4.654;2023-06-04T06:13:49;13.50;99.90
16907;DHT22;8570;52.380;4.654;2023-06-04T06:18:51;13.60;99.90
16907;DHT22;8570;52.380;4.654;2023-06-04T06:23:55;13.70;99.90
16907;DHT22;8570;52.380;4.654;2023-06-04T06:28:57;13.80;99.90
16907;DHT22;8570;52.380;4.654;2023-06-04T06:33:59;13.80;99.90
16907;DHT22;8570;52.380;4.654;2023-06-04T06:39:03;13.90;99.90
16907;DHT22;8570;52.380;4.654;2023-06-04T06:44:05;14.00;99.90
16907;DHT22;8570;52.380;4.654;2023-06-04T06:49:07;14.10;99.90
16907;DHT22;8570;52.380;4.654;2023-06-04T06:54:10;14.20;99.90
16907;DHT22;8570;52.380;4.654;2023-06-04T06:59:12;14.30;99.90
16907;DHT22;8570;52.380;4.654;2023-06-04T07:04:14;14.40;99.90
16907;DHT22;8570;52.380;4.654;2023-06-04T07:09:18;14.50;99.90
16907;DHT22;8570;52.380;4.654;2023-06-04T07:14:20;14.60;99.90
16907;DHT22;8570;52.380;4.654;2023-06-04T07:19:22;14.70;99.90
16907;DHT22;8570;52.380;4.654;2023-06-04T07:24:26;14.80;99.90
16907;DHT22;8570;52.380;4.654;2023-06-04T07:29:27;14.90;99.90
16907;DHT22;8570;52.380;4.654;2023-06-04T07:34:29;15.00;99.90
16907;DHT22;8570;52.380;4.654;2023-06-04T07:39:32;15.10;99.90
16907;DHT22;8570;52.380;4.654;2023-06-04T07:44:36;15.30;99.90
16907;DHT22;8570;52.380;4.654;2023-06-04T07:49:38;15.40;99.90
16907;DHT22;8570;52.380;4.654;2023-06-04T07:54:42;15.60;99.90
16907;DHT22;8570;52.380;4.654;2023-06-04T07:59:44;15.80;99.90
16907;DHT22;8570;52.380;4.654;2023-06-04T08:04:48;16.00;99.90
16907;DHT22;8570;52.380;4.654;2023-06-04T08:09:52;16.20;99.90
16907;DHT22;8570;52.380;4.654;2023-06-04T08:14:56;16.50;99.90
16907;DHT22;8570;52.380;4.654;2023-06-04T08:19:58;16.80;99.90
16907;DHT22;8570;52.380;4.654;2023-06-04T08:25:01;17.20;99.90
16907;DHT22;8570;52.380;4.654;2023-06-04T08:30:05;17.70;99.90
16907;DHT22;8570;52.380;4.654;2023-06-04T08:35:08;18.10;99.90
16907;DHT22;8570;52.380;4.654;2023-06-04T08:40:12;18.50;99.90
16907;DHT22;8570;52.380;4.654;2023-06-04T08:45:15;19.00;99.90
16907;DHT22;8570;52.380;4.654;2023-06-04T08:50:19;19.40;99.90
16907;DHT22;8570;52.380;4.654;2023-06-04T08:55:22;19.90;99.40
16907;DHT22;8570;52.380;4.654;2023-06-04T09:00:24;20.20;97.90
16907;DHT22;8570;52.380;4.654;2023-06-04T09:05:26;20.60;98.00
16907;DHT22;8570;52.380;4.654;2023-06-04T09:10:31;21.00;97.20
16907;DHT22;8570;52.380;4.654;2023-06-04T09:15:33;21.30;96.80
16907;DHT22;8570;52.380;4.654;2023-06-04T09:20:35;21.70;96.20
16907;DHT22;8570;52.380;4.654;2023-06-04T09:25:42;22.10;94.70
16907;DHT22;8570;52.380;4.654;2023-06-04T09:30:51;22.30;93.90
16907;DHT22;8570;52.380;4.654;2023-06-04T09:35:53;22.70;93.20
16907;DHT22;8570;52.380;4.654;2023-06-04T09:40:57;23.00;92.50
16907;DHT22;8570;52.380;4.654;2023-06-04T10:11:32;23.90;99.90
16907;DHT22;8570;52.380;4.654;2023-06-04T10:16:37;24.10;90.70
16907;DHT22;8570;52.380;4.654;2023-06-04T11:57:53;26.20;78.90
16907;DHT22;8570;52.380;4.654;2023-06-04T12:02:56;26.30;77.80
16907;DHT22;8570;52.380;4.654;2023-06-04T12:08:05;26.40;78.30
16907;DHT22;8570;52.380;4.654;2023-06-04T12:13:10;26.40;76.90
16907;DHT22;8570;52.380;4.654;2023-06-04T12:18:23;26.30;78.00
16907;DHT22;8570;52.380;4.654;2023-06-04T12:23:27;26.40;77.10
16907;DHT22;8570;52.380;4.654;2023-06-04T12:28:31;26.50;76.20
16907;DHT22;8570;52.380;4.654;2023-06-04T12:33:35;26.60;76.50
16907;DHT22;8570;52.380;4.654;2023-06-04T12:38:37;26.70;76.70
16907;DHT22;8570;52.380;4.654;2023-06-04T12:43:40;26.70;75.00
16907;DHT22;8570;52.380;4.654;2023-06-04T12:48:42;26.80;74.50
16907;DHT22;8570;52.380;4.654;2023-06-04T12:53:44;27.00;74.40
16907;DHT22;8570;52.380;4.654;2023-06-04T12:58:48;27.20;73.40
16907;DHT22;8570;52.380;4.654;2023-06-04T13:03:50;27.30;73.70
16907;DHT22;8570;52.380;4.654;2023-06-04T13:08:52;27.30;72.90
16907;DHT22;8570;52.380;4.654;2023-06-04T13:13:55;27.40;72.30
16907;DHT22;8570;52.380;4.654;2023-06-04T13:18:57;27.30;72.00
16907;DHT22;8570;52.380;4.654;2023-06-04T13:23:59;27.30;72.10
16907;DHT22;8570;52.380;4.654;2023-06-04T13:29:03;27.30;71.50
16907;DHT22;8570;52.380;4.654;2023-06-04T13:34:04;27.40;71.20
16907;DHT22;8570;52.380;4.654;2023-06-04T13:39:06;27.40;70.50
16907;DHT22;8570;52.380;4.654;2023-06-04T13:49:12;27.30;69.20
16907;DHT22;8570;52.380;4.654;2023-06-04T13:54:14;27.10;70.30
16907;DHT22;8570;52.380;4.654;2023-06-04T13:59:17;27.00;71.30
16907;DHT22;8570;52.380;4.654;2023-06-04T14:04:19;27.10;71.40
16907;DHT22;8570;52.380;4.654;2023-06-04T14:09:21;27.20;69.90
16907;DHT22;8570;52.380;4.654;2023-06-04T14:14:25;27.30;70.00
16907;DHT22;8570;52.380;4.654;2023-06-04T14:19:27;27.20;70.00
16907;DHT22;8570;52.380;4.654;2023-06-04T14:24:29;27.20;71.60
16907;DHT22;8570;52.380;4.654;2023-06-04T14:29:35;27.20;69.70
16907;DHT22;8570;52.380;4.654;2023-06-04T14:34:39;27.30;69.80
16907;DHT22;8570;52.380;4.654;2023-06-04T14:39:41;27.30;70.00
16907;DHT22;8570;52.380;4.654;2023-06-04T14:44:45;27.30;69.70
16907;DHT22;8570;52.380;4.654;2023-06-04T14:49:47;27.30;69.20
16907;DHT22;8570;52.380;4.654;2023-06-04T14:54:49;27.30;69.50
16907;DHT22;8570;52.380;4.654;2023-06-04T14:59:53;27.30;70.10
16907;DHT22;8570;52.380;4.654;2023-06-04T15:04:55;27.30;70.00
16907;DHT22;8570;52.380;4.654;2023-06-04T15:10:06;27.30;70.20
16907;DHT22;8570;52.380;4.654;2023-06-04T15:15:14;27.30;70.40
16907;DHT22;8570;52.380;4.654;2023-06-04T15:20:16;27.20;70.50
16907;DHT22;8570;52.380;4.654;2023-06-04T15:25:18;27.10;71.00
16907;DHT22;8570;52.380;4.654;2023-06-04T15:30:22;27.00;71.50
16907;DHT22;8570;52.380;4.654;2023-06-04T15:35:25;26.90;71.80
16907;DHT22;8570;52.380;4.654;2023-06-04T15:40:28;26.70;72.50
16907;DHT22;8570;52.380;4.654;2023-06-04T15:45:31;26.70;72.90
16907;DHT22;8570;52.380;4.654;2023-06-04T15:50:33;26.60;73.20
16907;DHT22;8570;52.380;4.654;2023-06-04T15:55:35;26.60;73.80
16907;DHT22;8570;52.380;4.654;2023-06-04T16:00:38;26.50;74.00
16907;DHT22;8570;52.380;4.654;2023-06-04T16:05:40;26.20;74.20
16907;DHT22;8570;52.380;4.654;2023-06-04T16:10:42;25.90;75.50
16907;DHT22;8570;52.380;4.654;2023-06-04T16:15:48;25.80;75.80
16907;DHT22;8570;52.380;4.654;2023-06-04T16:20:50;25.60;76.20
16907;DHT22;8570;52.380;4.654;2023-06-04T16:25:52;25.40;76.60
16907;DHT22;8570;52.380;4.654;2023-06-04T16:31:01;25.20;76.70
16907;DHT22;8570;52.380;4.654;2023-06-04T16:36:03;25.00;77.30
16907;DHT22;8570;52.380;4.654;2023-06-04T16:41:06;24.80;78.00
16907;DHT22;8570;52.380;4.654;2023-06-04T16:46:18;24.60;78.70
16907;DHT22;8570;52.380;4.654;2023-06-04T16:51:20;24.50;79.10
16907;DHT22;8570;52.380;4.654;2023-06-04T16:56:22;24.20;79.50
16907;DHT22;8570;52.380;4.654;2023-06-04T17:01:25;23.90;80.50
16907;DHT22;8570;52.380;4.654;2023-06-04T17:06:27;23.50;81.30
16907;DHT22;8570;52.380;4.654;2023-06-04T17:11:29;23.30;81.60
16907;DHT22;8570;52.380;4.654;2023-06-04T17:16:40;23.10;82.00
16907;DHT22;8570;52.380;4.654;2023-06-04T17:21:41;22.80;82.50
16907;DHT22;8570;52.380;4.654;2023-06-04T17:26:44;22.70;83.10
16907;DHT22;8570;52.380;4.654;2023-06-04T17:31:47;22.50;83.50
16907;DHT22;8570;52.380;4.654;2023-06-04T17:36:49;22.10;84.20
16907;DHT22;8570;52.380;4.654;2023-06-04T17:41:51;21.70;84.60
16907;DHT22;8570;52.380;4.654;2023-06-04T17:46:54;21.40;85.40
16907;DHT22;8570;52.380;4.654;2023-06-04T17:51:57;21.10;86.50
16907;DHT22;8570;52.380;4.654;2023-06-04T17:57:00;20.80;86.90
16907;DHT22;8570;52.380;4.654;2023-06-04T18:02:03;20.60;87.20
16907;DHT22;8570;52.380;4.654;2023-06-04T18:07:05;20.50;87.60
16907;DHT22;8570;52.380;4.654;2023-06-04T18:12:07;20.40;88.10
16907;DHT22;8570;52.380;4.654;2023-06-04T18:17:13;20.20;88.60
16907;DHT22;8570;52.380;4.654;2023-06-04T18:22:15;20.00;89.00
16907;DHT22;8570;52.380;4.654;2023-06-04T18:27:17;19.80;89.40
16907;DHT22;8570;52.380;4.654;2023-06-04T18:32:20;19.70;89.90
16907;DHT22;8570;52.380;4.654;2023-06-04T18:37:22;19.50;90.10
16907;DHT22;8570;52.380;4.654;2023-06-04T18:42:24;19.40;90.30
16907;DHT22;8570;52.380;4.654;2023-06-04T18:47:27;19.20;90.50
16907;DHT22;8570;52.380;4.654;2023-06-04T18:52:29;19.00;91.20
16907;DHT22;8570;52.380;4.654;2023-06-04T18:57:33;18.90;91.10
16907;DHT22;8570;52.380;4.654;2023-06-04T19:02:37;18.70;91.30
16907;DHT22;8570;52.380;4.654;2023-06-04T19:07:40;18.60;91.50
16907;DHT22;8570;52.380;4.654;2023-06-04T19:12:42;18.40;91.70
16907;DHT22;8570;52.380;4.654;2023-06-04T19:17:45;18.30;92.20
16907;DHT22;8570;52.380;4.654;2023-06-04T19:22:47;18.10;92.10
16907;DHT22;8570;52.380;4.654;2023-06-04T19:27:49;17.90;92.30
16907;DHT22;8570;52.380;4.654;2023-06-04T19:32:55;17.80;92.50
16907;DHT22;8570;52.380;4.654;2023-06-04T19:37:57;17.70;93.50
16907;DHT22;8570;52.380;4.654;2023-06-04T19:42:59;17.60;92.90
16907;DHT22;8570;52.380;4.654;2023-06-04T19:48:03;17.40;93.10
16907;DHT22;8570;52.380;4.654;2023-06-04T19:53:05;17.30;93.30
16907;DHT22;8570;52.380;4.654;2023-06-04T19:58:07;17.10;93.40
16907;DHT22;8570;52.380;4.654;2023-06-04T20:03:10;17.00;93.70
16907;DHT22;8570;52.380;4.654;2023-06-04T20:08:12;16.80;94.00
16907;DHT22;8570;52.380;4.654;2023-06-04T20:13:15;16.60;94.20
16907;DHT22;8570;52.380;4.654;2023-06-04T20:18:21;16.50;94.60
16907;DHT22;8570;52.380;4.654;2023-06-04T20:23:23;16.30;94.70
16907;DHT22;8570;52.380;4.654;2023-06-04T20:28:25;16.30;95.30
16907;DHT22;8570;52.380;4.654;2023-06-04T20:33:29;16.20;95.10
16907;DHT22;8570;52.380;4.654;2023-06-04T20:38:30;16.10;95.30
16907;DHT22;8570;52.380;4.654;2023-06-04T20:43:44;16.00;95.50
16907;DHT22;8570;52.380;4.654;2023-06-04T20:48:51;16.00;95.80
16907;DHT22;8570;52.380;4.654;2023-06-04T20:53:54;15.90;95.80
16907;DHT22;8570;52.380;4.654;2023-06-04T20:58:56;15.80;96.10
16907;DHT22;8570;52.380;4.654;2023-06-04T21:03:59;15.70;96.40
16907;DHT22;8570;52.380;4.654;2023-06-04T21:09:01;15.60;96.60
16907;DHT22;8570;52.380;4.654;2023-06-04T21:14:06;15.50;96.60
16907;DHT22;8570;52.380;4.654;2023-06-04T21:19:16;15.50;96.90
16907;DHT22;8570;52.380;4.654;2023-06-04T21:24:18;15.40;97.10
16907;DHT22;8570;52.380;4.654;2023-06-04T21:29:20;15.30;97.30
16907;DHT22;8570;52.380;4.654;2023-06-04T21:34:23;15.20;97.50
16907;DHT22;8570;52.380;4.654;2023-06-04T21:39:25;15.20;97.70
16907;DHT22;8570;52.380;4.654;2023-06-04T21:44:27;15.10;97.80
16907;DHT22;8570;52.380;4.654;2023-06-04T21:49:30;15.10;98.00
16907;DHT22;8570;52.380;4.654;2023-06-04T21:54:32;15.00;98.10
16907;DHT22;8570;52.380;4.654;2023-06-04T21:59:34;14.90;98.30
16907;DHT22;8570;52.380;4.654;2023-06-04T22:04:37;14.90;98.50
16907;DHT22;8570;52.380;4.654;2023-06-04T22:09:39;14.80;98.70
16907;DHT22;8570;52.380;4.654;2023-06-04T22:14:41;14.70;98.70
16907;DHT22;8570;52.380;4.654;2023-06-04T22:19:45;14.70;98.90
16907;DHT22;8570;52.380;4.654;2023-06-04T22:24:47;14.60;99.00
16907;DHT22;8570;52.380;4.654;2023-06-04T22:29:49;14.50;99.20
16907;DHT22;8570;52.380;4.654;2023-06-04T22:34:52;14.50;99.40
16907;DHT22;8570;52.380;4.654;2023-06-04T22:39:54;14.40;99.50
16907;DHT22;8570;52.380;4.654;2023-06-04T22:44:59;14.30;99.60
16907;DHT22;8570;52.380;4.654;2023-06-04T22:50:03;14.30;99.80
16907;DHT22;8570;52.380;4.654;2023-06-04T22:55:07;14.20;99.90
16907;DHT22;8570;52.380;4.654;2023-06-04T23:00:10;14.20;99.90
16907;DHT22;8570;52.380;4.654;2023-06-04T23:05:14;14.10;99.90
16907;DHT22;8570;52.380;4.654;2023-06-04T23:10:16;14.00;99.90
16907;DHT22;8570;52.380;4.654;2023-06-04T23:15:19;14.00;99.90
16907;DHT22;8570;52.380;4.654;2023-06-04T23:20:23;13.90;99.90
16907;DHT22;8570;52.380;4.654;2023-06-04T23:25:25;13.80;99.90
16907;DHT22;8570;52.380;4.654;2023-06-04T23:30:27;13.80;99.90
16907;DHT22;8570;52.380;4.654;2023-06-04T23:35:30;13.70;99.90
16907;DHT22;8570;52.380;4.654;2023-06-04T23:40:33;13.70;99.90
16907;DHT22;8570;52.380;4.654;2023-06-04T23:45:36;13.60;99.90
16907;DHT22;8570;52.380;4.654;2023-06-04T23:50:39;13.50;99.90
16907;DHT22;8570;52.380;4.654;2023-06-04T23:55:41;13.50;99.90
